Time;durP1;ratioP1;P1;durP2;ratioP2;P2;SDS_P1;SDS_P2;PMS_P1;PMS_P2;Temp;Humidity;BMP_temperature;BMP_pressure;BME280_temperature;BME280_humidity;BME280_pressure;Samples;Min_cycle;Max_cycle;Signal;HPM_P1;HPM_P2
2021/10/23 00:02:25;;;;;;;6.75;2.30;;;;;;;6.60;52.97;98545.94;5061853;28;20082;-82
2021/10/23 00:04:50;;;;;;;5.18;2.30;;;;;;;6.61;53.01;98558.47;5075663;28;20029;-85
2021/10/23 00:07:16;;;;;;;5.38;2.20;;;;;;;6.61;53.03;98564.75;5076082;28;20082;-83
2021/10/23 00:09:41;;;;;;;7.10;2.60;;;;;;;6.62;52.91;98560.13;5081767;28;20422;-82
2021/10/23 00:12:07;;;;;;;5.43;1.83;;;;;;;6.61;52.81;98567.47;5082454;28;20111;-82
2021/10/23 00:14:33;;;;;;;3.38;1.48;;;;;;;6.59;53.25;98557.94;5083233;28;20032;-82
2021/10/23 00:16:58;;;;;;;8.32;2.60;;;;;;;6.55;53.05;98547.56;5078653;28;20486;-84
2021/10/23 00:19:23;;;;;;;5.65;1.90;;;;;;;6.49;53.94;98550.53;5077843;28;20453;-84
2021/10/23 00:21:49;;;;;;;6.20;2.28;;;;;;;6.50;53.42;98563.88;5079584;28;20027;-81
2021/10/23 00:24:15;;;;;;;5.45;2.58;;;;;;;6.50;54.07;98558.44;5076289;28;20030;-80
2021/10/23 00:26:41;;;;;;;6.78;1.98;;;;;;;6.45;53.63;98558.41;5080121;28;20393;-83
2021/10/23 00:29:06;;;;;;;4.53;1.83;;;;;;;6.48;53.83;98570.72;5082894;28;20496;-81
2021/10/23 00:31:32;;;;;;;4.30;1.88;;;;;;;6.49;54.29;98577.78;5079928;28;20023;-81
2021/10/23 00:33:57;;;;;;;4.07;1.70;;;;;;;6.53;53.64;98581.59;5077140;28;20032;-83
2021/10/23 00:36:23;;;;;;;5.00;1.83;;;;;;;6.58;53.94;98583.53;5074459;28;20428;-80
2021/10/23 00:38:48;;;;;;;3.17;1.77;;;;;;;6.58;54.00;98584.34;5076631;28;20128;-81
2021/10/23 00:41:14;;;;;;;4.95;1.92;;;;;;;6.58;54.25;98589.00;5078341;28;20043;-81
2021/10/23 00:43:44;;;;;;;3.40;1.63;;;;;;;6.60;54.13;98595.81;5076285;28;20062;-82
2021/10/23 00:46:09;;;;;;;3.97;1.88;;;;;;;6.66;54.70;98593.94;5078110;28;20055;-81
2021/10/23 00:48:35;;;;;;;3.33;1.50;;;;;;;6.69;55.05;98596.13;5083382;28;20124;-83
2021/10/23 00:51:00;;;;;;;3.53;1.65;;;;;;;6.71;54.67;98599.41;5090976;28;20020;-82
2021/10/23 00:53:26;;;;;;;4.25;1.77;;;;;;;6.72;55.06;98600.22;5085549;28;20028;-82
2021/10/23 00:55:51;;;;;;;3.55;1.50;;;;;;;6.76;55.12;98606.78;5085789;28;20029;-82
2021/10/23 00:58:17;;;;;;;5.25;1.70;;;;;;;6.78;55.14;98604.59;5089114;28;20427;-83
2021/10/23 01:00:43;;;;;;;5.30;1.83;;;;;;;6.81;55.14;98607.59;5064697;28;20059;-82
2021/10/23 01:03:09;;;;;;;5.28;1.70;;;;;;;6.83;55.50;98604.63;5089656;28;20048;-81
2021/10/23 01:05:34;;;;;;;2.72;1.30;;;;;;;6.85;55.25;98610.63;5082987;28;20036;-82
2021/10/23 01:08:00;;;;;;;4.97;1.60;;;;;;;6.93;55.31;98615.53;5081739;28;20041;-82
2021/10/23 01:10:26;;;;;;;3.20;1.50;;;;;;;6.99;55.95;98632.75;5083713;28;20028;-85
2021/10/23 01:12:51;;;;;;;4.57;1.50;;;;;;;7.02;55.63;98643.13;5085462;28;20024;-83
2021/10/23 01:15:26;;;;;;;3.10;1.63;;;;;;;7.05;55.42;98647.19;5085310;28;20538;-83
2021/10/23 01:17:53;;;;;;;3.58;1.50;;;;;;;7.06;55.76;98646.94;5065119;28;20413;-84
2021/10/23 01:20:20;;;;;;;3.10;1.40;;;;;;;7.09;56.24;98642.84;5085236;28;20593;-84
2021/10/23 01:22:47;;;;;;;4.00;1.52;;;;;;;7.07;55.57;98656.78;5087649;28;20479;-83
2021/10/23 01:25:13;;;;;;;4.97;1.67;;;;;;;7.10;56.51;98667.16;5084811;28;20421;-82
2021/10/23 01:27:39;;;;;;;3.60;1.45;;;;;;;7.09;57.36;98673.69;5085358;28;20172;-84
2021/10/23 01:30:07;;;;;;;3.97;1.55;;;;;;;7.04;58.44;98687.31;5084768;28;20362;-84
2021/10/23 01:32:32;;;;;;;3.63;1.30;;;;;;;6.98;59.41;98689.19;5090178;28;20020;-86
2021/10/23 01:34:57;;;;;;;2.92;1.58;;;;;;;6.88;59.13;98686.44;5090472;28;20043;-84
2021/10/23 01:37:37;;;;;;;3.20;1.45;;;;;;;6.72;59.33;98680.09;5091429;28;20469;-86
2021/10/23 01:40:04;;;;;;;3.05;1.00;;;;;;;6.62;60.54;98689.00;5110528;28;20027;-83
2021/10/23 01:42:30;;;;;;;2.65;0.80;;;;;;;6.52;61.14;98686.25;5091989;28;20040;-82
2021/10/23 01:44:55;;;;;;;1.60;0.80;;;;;;;6.40;61.95;98681.81;5088919;28;20028;-83
2021/10/23 01:47:22;;;;;;;2.15;0.80;;;;;;;6.27;60.54;98692.38;5088116;28;20028;-84
2021/10/23 01:49:48;;;;;;;1.40;0.70;;;;;;;6.09;61.71;98689.78;5101065;28;20101;-92
2021/10/23 01:52:14;;;;;;;2.00;0.90;;;;;;;5.97;61.82;98695.38;5088240;28;20540;-93
2021/10/23 01:54:39;;;;;;;3.00;0.90;;;;;;;5.87;62.19;98698.03;5096157;28;20109;-91
2021/10/23 01:57:04;;;;;;;2.28;0.70;;;;;;;5.84;63.54;98695.81;5095605;28;20031;-90
2021/10/23 01:59:30;;;;;;;2.88;0.80;;;;;;;5.81;62.46;98701.78;5097174;28;20381;-90
2021/10/23 02:01:55;;;;;;;2.40;0.80;;;;;;;5.76;62.68;98707.19;5092914;28;20039;-90
2021/10/23 02:04:21;;;;;;;2.35;0.80;;;;;;;5.66;62.20;98708.72;5091633;28;20032;-90
2021/10/23 02:06:46;;;;;;;2.35;0.80;;;;;;;5.62;63.04;98720.38;5090030;28;20032;-90
2021/10/23 02:09:11;;;;;;;2.83;0.75;;;;;;;5.58;62.89;98717.34;5096524;28;20035;-92
2021/10/23 02:11:37;;;;;;;1.48;0.70;;;;;;;5.51;62.68;98724.88;5094503;28;20032;-90
2021/10/23 02:14:03;;;;;;;2.03;0.80;;;;;;;5.49;63.12;98725.16;5094810;28;20035;-90
2021/10/23 02:16:28;;;;;;;1.48;0.60;;;;;;;5.47;63.26;98721.88;5087242;28;20069;-89
2021/10/23 02:18:54;;;;;;;2.60;1.17;;;;;;;5.44;63.52;98725.09;5096313;28;20035;-90
2021/10/23 02:21:19;;;;;;;2.22;0.80;;;;;;;5.41;62.95;98738.41;5099812;28;20452;-89
2021/10/23 02:23:45;;;;;;;1.98;0.75;;;;;;;5.38;63.27;98741.63;5092505;28;20090;-88
2021/10/23 02:26:10;;;;;;;2.80;0.70;;;;;;;5.33;63.08;98732.34;5086622;28;20078;-89
2021/10/23 02:28:36;;;;;;;1.80;1.10;;;;;;;5.35;64.20;98742.94;5091857;28;20028;-87
2021/10/23 02:31:01;;;;;;;3.70;0.90;;;;;;;5.36;64.28;98747.31;5090659;28;20030;-85
2021/10/23 02:33:27;;;;;;;1.35;0.70;;;;;;;5.35;64.21;98751.94;5093439;28;20550;-84
2021/10/23 02:35:52;;;;;;;3.45;0.80;;;;;;;5.34;63.71;98754.91;5086240;28;20066;-85
2021/10/23 02:38:18;;;;;;;3.80;0.90;;;;;;;5.29;63.19;98747.50;5089379;28;20032;-87
2021/10/23 02:40:44;;;;;;;2.58;1.08;;;;;;;5.24;63.94;98754.81;5090115;28;20016;-88
2021/10/23 02:43:09;;;;;;;2.90;0.80;;;;;;;5.24;63.10;98757.53;5086351;28;20031;-87
2021/10/23 02:45:35;;;;;;;1.30;0.80;;;;;;;5.22;63.26;98763.19;5086490;28;20384;-85
2021/10/23 02:48:01;;;;;;;3.50;1.05;;;;;;;5.24;63.70;98771.13;5089404;28;20021;-86
2021/10/23 02:50:27;;;;;;;1.35;0.65;;;;;;;5.18;62.64;98762.91;5088490;28;20099;-86
2021/10/23 02:52:54;;;;;;;3.35;0.70;;;;;;;5.12;63.05;98768.50;5086628;28;20110;-86
2021/10/23 02:55:19;;;;;;;4.18;0.80;;;;;;;5.05;63.27;98766.81;5086025;28;20028;-86
2021/10/23 02:57:45;;;;;;;3.25;0.77;;;;;;;5.00;62.77;98777.63;5082731;28;20036;-86
2021/10/23 03:00:11;;;;;;;2.35;0.85;;;;;;;4.97;62.59;98769.97;5083273;28;20025;-87
2021/10/23 03:02:36;;;;;;;1.58;0.80;;;;;;;4.92;62.85;98769.91;5083453;28;20111;-89
2021/10/23 03:05:03;;;;;;;2.42;0.90;;;;;;;4.85;63.66;98771.97;5083028;28;20032;-90
2021/10/23 03:07:30;;;;;;;3.42;1.00;;;;;;;4.82;63.34;98781.47;5087644;28;20073;-88
2021/10/23 03:09:56;;;;;;;1.77;0.95;;;;;;;4.79;62.82;98781.97;5082279;28;20032;-88
2021/10/23 03:12:21;;;;;;;2.60;0.90;;;;;;;4.75;62.93;98778.09;5089522;28;20039;-88
2021/10/23 03:14:47;;;;;;;2.95;0.70;;;;;;;4.69;63.31;98771.75;5096086;28;20029;-87
2021/10/23 03:17:12;;;;;;;2.50;0.50;;;;;;;4.65;62.93;98775.22;5081890;28;20029;-88
2021/10/23 03:19:38;;;;;;;1.67;0.60;;;;;;;4.60;64.13;98795.00;5087912;28;20115;-88
2021/10/23 03:22:03;;;;;;;2.15;0.63;;;;;;;4.54;63.68;98788.66;5087366;28;20453;-86
2021/10/23 03:24:28;;;;;;;1.92;0.55;;;;;;;4.50;64.00;98784.78;5087244;28;20028;-88
2021/10/23 03:26:54;;;;;;;2.70;0.80;;;;;;;4.49;64.85;98791.28;5088647;28;20032;-88
2021/10/23 03:29:20;;;;;;;2.60;0.93;;;;;;;4.43;64.28;98792.28;5078909;28;20044;-86
2021/10/23 03:31:45;;;;;;;2.08;0.90;;;;;;;4.41;64.01;98795.25;5082673;28;20490;-87
2021/10/23 03:34:10;;;;;;;2.05;0.93;;;;;;;4.39;64.18;98800.09;5081032;28;20628;-86
2021/10/23 03:36:36;;;;;;;3.03;1.13;;;;;;;4.38;63.83;98809.31;5066213;28;20039;-87
2021/10/23 03:39:02;;;;;;;2.38;0.88;;;;;;;4.39;64.74;98810.97;5095755;28;20036;-87
2021/10/23 03:41:28;;;;;;;2.42;0.88;;;;;;;4.37;64.94;98813.09;5088765;28;20040;-89
2021/10/23 03:43:53;;;;;;;4.40;0.85;;;;;;;4.36;64.84;98814.16;5091941;28;20063;-86
2021/10/23 03:46:19;;;;;;;2.53;0.90;;;;;;;4.38;64.70;98820.19;5092015;28;20525;-86
2021/10/23 03:48:44;;;;;;;3.55;1.23;;;;;;;4.40;64.93;98815.31;5098388;28;20028;-83
2021/10/23 03:51:09;;;;;;;2.92;0.95;;;;;;;4.40;64.57;98823.47;5088812;28;20464;-84
2021/10/23 03:53:35;;;;;;;1.83;0.70;;;;;;;4.39;64.41;98826.44;5092701;28;20043;-85
2021/10/23 03:56:01;;;;;;;1.77;1.10;;;;;;;4.38;65.07;98827.50;5089657;28;20081;-82
2021/10/23 03:58:26;;;;;;;2.00;0.95;;;;;;;4.38;65.24;98830.22;5095619;28;20114;-82
2021/10/23 04:00:52;;;;;;;4.28;1.58;;;;;;;4.36;64.67;98825.03;5104687;28;20114;-85
2021/10/23 04:03:18;;;;;;;3.28;0.88;;;;;;;4.36;64.72;98827.75;5096289;28;20047;-83
2021/10/23 04:05:43;;;;;;;5.35;1.30;;;;;;;4.38;65.76;98832.94;5096679;28;20032;-84
2021/10/23 04:08:09;;;;;;;2.30;1.00;;;;;;;4.44;65.58;98832.78;5087406;28;20020;-82
2021/10/23 04:10:34;;;;;;;2.03;0.80;;;;;;;4.44;64.83;98831.97;5101752;28;20031;-82
2021/10/23 04:12:59;;;;;;;2.70;0.98;;;;;;;4.47;64.86;98837.72;5090597;28;20024;-85
2021/10/23 04:15:25;;;;;;;3.55;1.05;;;;;;;4.52;65.63;98836.16;5091222;28;20040;-82
2021/10/23 04:17:50;;;;;;;1.65;0.73;;;;;;;4.52;64.82;98842.41;5090954;28;20036;-82
2021/10/23 04:20:16;;;;;;;3.90;1.00;;;;;;;4.51;64.49;98832.59;5091645;28;20040;-83
2021/10/23 04:22:41;;;;;;;2.70;1.20;;;;;;;4.49;64.53;98836.66;5086337;28;20020;-83
2021/10/23 04:25:08;;;;;;;2.63;0.73;;;;;;;4.45;64.53;98837.13;5088983;28;20055;-82
2021/10/23 04:27:34;;;;;;;4.47;1.70;;;;;;;4.42;64.67;98842.25;5088023;28;20040;-84
2021/10/23 04:29:59;;;;;;;10.13;3.25;;;;;;;4.40;65.12;98838.97;5087131;28;20028;-84
2021/10/23 04:32:25;;;;;;;8.07;2.30;;;;;;;4.38;64.65;98839.19;5095882;28;20494;-83
2021/10/23 04:34:50;;;;;;;6.22;2.00;;;;;;;4.35;64.76;98845.09;5090555;28;20032;-82
2021/10/23 04:37:15;;;;;;;8.13;2.33;;;;;;;4.37;64.39;98851.13;5090597;28;20357;-85
2021/10/23 04:39:41;;;;;;;6.38;1.80;;;;;;;4.39;64.73;98850.88;5090656;28;20384;-83
2021/10/23 04:42:07;;;;;;;5.80;2.15;;;;;;;4.43;64.54;98855.56;5074860;28;20035;-84
2021/10/23 04:44:32;;;;;;;6.00;2.00;;;;;;;4.49;64.50;98858.38;5091353;28;20024;-84
2021/10/23 04:46:58;;;;;;;4.53;1.70;;;;;;;4.49;64.00;98858.38;5091238;28;20103;-83
2021/10/23 04:49:23;;;;;;;7.82;2.30;;;;;;;4.45;64.11;98850.72;5086560;28;20062;-83
2021/10/23 04:51:49;;;;;;;7.35;2.10;;;;;;;4.47;64.45;98851.28;5091219;28;20070;-84
2021/10/23 04:54:14;;;;;;;5.63;1.65;;;;;;;4.45;64.88;98856.16;5090893;28;20127;-84
2021/10/23 04:56:39;;;;;;;5.75;1.90;;;;;;;4.48;63.84;98860.28;5102362;28;20023;-84
2021/10/23 04:59:05;;;;;;;4.55;1.80;;;;;;;4.50;64.19;98860.84;5101970;28;20084;-83
2021/10/23 05:01:30;;;;;;;4.63;1.70;;;;;;;4.54;64.07;98870.13;5097443;28;20400;-84
2021/10/23 05:03:56;;;;;;;4.88;1.80;;;;;;;4.53;64.04;98875.81;5092121;28;20051;-83
2021/10/23 05:06:21;;;;;;;1.73;0.88;;;;;;;4.52;64.06;98877.72;5094580;28;20403;-84
2021/10/23 05:08:47;;;;;;;4.93;1.20;;;;;;;4.56;63.80;98887.00;5080677;28;20063;-85
2021/10/23 05:11:12;;;;;;;4.05;1.02;;;;;;;4.55;63.83;98890.78;5101561;28;20051;-84
2021/10/23 05:13:38;;;;;;;4.78;1.50;;;;;;;4.56;63.49;98895.16;5090226;28;20039;-84
2021/10/23 05:16:03;;;;;;;4.35;1.23;;;;;;;4.59;63.40;98902.81;5091409;28;20496;-84
2021/10/23 05:18:29;;;;;;;4.15;1.33;;;;;;;4.61;64.04;98910.75;5095251;28;20111;-83
2021/10/23 05:20:54;;;;;;;5.05;1.50;;;;;;;4.61;62.96;98914.28;5074947;28;20028;-83
2021/10/23 05:23:20;;;;;;;5.88;1.83;;;;;;;4.60;62.87;98912.63;5093845;28;21323;-83
2021/10/23 05:25:46;;;;;;;4.90;1.80;;;;;;;4.60;63.54;98917.25;5095552;28;20088;-82
2021/10/23 05:28:11;;;;;;;2.72;1.40;;;;;;;4.59;62.97;98919.13;5082204;28;20396;-81
2021/10/23 05:30:37;;;;;;;7.70;2.38;;;;;;;4.63;63.00;98927.63;5105199;28;20036;-82
2021/10/23 05:33:02;;;;;;;5.18;1.95;;;;;;;4.64;62.83;98928.44;5102293;28;20028;-88
2021/10/23 05:35:28;;;;;;;7.65;2.25;;;;;;;4.69;62.83;98931.25;5115233;28;20052;-85
2021/10/23 05:37:53;;;;;;;5.63;1.65;;;;;;;4.71;63.15;98934.53;5108520;28;20392;-84
2021/10/23 05:40:19;;;;;;;6.15;2.17;;;;;;;4.73;62.59;98937.84;5100959;28;20031;-83
2021/10/23 05:42:44;;;;;;;5.15;2.70;;;;;;;4.71;62.48;98937.25;5112306;28;20044;-80
2021/10/23 05:45:10;;;;;;;4.90;2.30;;;;;;;4.69;62.29;98945.63;5099512;28;20648;-80
2021/10/23 05:47:36;;;;;;;5.25;2.33;;;;;;;4.68;62.37;98938.59;5094263;28;20127;-79
2021/10/23 05:50:01;;;;;;;6.30;2.08;;;;;;;4.68;62.61;98945.91;5094232;28;20153;-81
2021/10/23 05:52:26;;;;;;;8.18;1.77;;;;;;;4.67;62.94;98949.69;5093374;28;20024;-80
2021/10/23 05:54:52;;;;;;;5.35;2.10;;;;;;;4.66;62.42;98951.59;5092614;28;20034;-79
2021/10/23 05:57:17;;;;;;;4.13;2.00;;;;;;;4.66;62.29;98951.59;5087549;28;20035;-80
2021/10/23 05:59:45;;;;;;;4.60;1.90;;;;;;;4.67;62.72;98953.25;5087439;28;20116;-80
2021/10/23 06:02:24;;;;;;;5.28;2.10;;;;;;;4.69;63.00;98956.50;5084292;28;20024;-80
2021/10/23 06:04:54;;;;;;;5.10;1.88;;;;;;;4.70;63.06;98958.16;5084163;28;20110;-80
2021/10/23 06:07:20;;;;;;;;;;;;;;;4.72;63.17;98956.00;5089481;28;20054;-80
2021/10/23 06:09:46;;;;;;;7.18;2.38;;;;;;;4.72;63.00;98972.31;5089270;28;19912;-79
2021/10/23 06:12:12;;;;;;;6.40;2.25;;;;;;;4.74;63.47;98963.94;5092665;28;20038;-80
2021/10/23 06:14:37;;;;;;;7.60;3.03;;;;;;;4.75;63.06;98974.56;5092210;28;20040;-78
2021/10/23 06:17:05;;;;;;;8.63;3.00;;;;;;;4.79;63.40;98972.19;5091789;28;20029;-80
2021/10/23 06:19:30;;;;;;;4.80;2.10;;;;;;;4.83;63.55;98978.78;5100628;28;20042;-81
2021/10/23 06:21:56;;;;;;;5.22;2.00;;;;;;;4.87;63.66;98982.66;5087035;28;20032;-80
2021/10/23 06:24:21;;;;;;;6.97;2.72;;;;;;;4.91;63.55;98975.63;5086918;28;20035;-80
2021/10/23 06:26:47;;;;;;;6.97;2.97;;;;;;;4.94;63.36;98987.91;5106217;28;20130;-80
2021/10/23 06:29:12;;;;;;;6.47;3.17;;;;;;;4.98;63.19;98994.53;5092145;28;20100;-81
2021/10/23 06:31:37;;;;;;;8.10;3.05;;;;;;;5.00;62.86;98988.81;5092370;28;20464;-80
2021/10/23 06:34:03;;;;;;;6.47;3.05;;;;;;;5.06;62.60;98990.56;5097748;28;20060;-80
2021/10/23 06:36:28;;;;;;;6.93;2.40;;;;;;;5.11;63.33;98990.66;5095678;28;20032;-80
2021/10/23 06:38:53;;;;;;;5.72;2.65;;;;;;;5.16;62.83;98998.06;5088898;28;20097;-79
2021/10/23 06:41:19;;;;;;;8.27;2.92;;;;;;;5.22;63.34;99000.63;5083107;28;20602;-80
2021/10/23 06:43:44;;;;;;;8.02;3.22;;;;;;;5.29;63.09;99000.44;5086874;28;20028;-80
2021/10/23 06:46:10;;;;;;;6.10;2.55;;;;;;;5.35;62.28;99002.19;5099535;28;20439;-85
2021/10/23 06:48:35;;;;;;;10.68;3.88;;;;;;;5.43;62.59;99014.53;5092382;28;20012;-81
2021/10/23 06:51:00;;;;;;;11.63;4.15;;;;;;;5.51;62.40;99007.84;5094346;28;20031;-81
2021/10/23 06:53:26;;;;;;;7.78;3.63;;;;;;;5.57;62.43;99004.13;5092133;28;20032;-80
2021/10/23 06:55:51;;;;;;;12.35;6.05;;;;;;;5.63;62.22;99016.72;5083515;28;20111;-80
2021/10/23 06:58:17;;;;;;;15.32;7.00;;;;;;;5.71;61.97;99025.53;5090614;28;20031;-80
2021/10/23 07:00:43;;;;;;;23.00;8.05;;;;;;;5.75;61.31;99023.97;5091145;28;20052;-80
2021/10/23 07:03:08;;;;;;;29.75;9.00;;;;;;;5.80;61.52;99030.31;5089600;28;20028;-80
2021/10/23 07:05:34;;;;;;;16.48;5.28;;;;;;;5.86;61.27;99033.94;5096915;28;20038;-79
2021/10/23 07:08:00;;;;;;;19.48;6.07;;;;;;;5.89;61.41;99038.03;5075737;28;20066;-79
2021/10/23 07:10:26;;;;;;;29.10;9.13;;;;;;;5.94;61.65;99035.41;5092252;28;20044;-79
2021/10/23 07:12:52;;;;;;;39.55;13.13;;;;;;;6.02;61.62;99037.72;5098140;28;20081;-80
2021/10/23 07:15:18;;;;;;;15.63;4.60;;;;;;;6.09;60.73;99043.81;5091974;28;20388;-80
2021/10/23 07:17:44;;;;;;;12.77;3.10;;;;;;;6.12;60.80;99039.75;5096093;28;20066;-80
2021/10/23 07:20:10;;;;;;;32.67;9.00;;;;;;;6.18;61.08;99052.34;5112171;28;20055;-79
2021/10/23 07:22:36;;;;;;;32.17;9.80;;;;;;;6.34;61.03;99050.66;5088824;28;20061;-80
2021/10/23 07:25:03;;;;;;;15.13;5.47;;;;;;;6.50;60.47;99045.41;5095611;28;20467;-79
2021/10/23 07:27:28;;;;;;;13.98;4.40;;;;;;;6.58;60.49;99053.09;5105325;28;20127;-80
2021/10/23 07:29:54;;;;;;;12.75;3.97;;;;;;;6.57;60.22;99053.38;5097425;28;20459;-79
2021/10/23 07:32:19;;;;;;;17.10;4.55;;;;;;;6.55;60.43;99059.06;5102583;28;20031;-79
2021/10/23 07:34:45;;;;;;;11.13;4.05;;;;;;;6.57;60.29;99058.81;5092371;28;20051;-79
2021/10/23 07:37:10;;;;;;;25.13;8.98;;;;;;;6.59;60.39;99057.47;5088479;28;20038;-80
2021/10/23 07:39:36;;;;;;;12.15;3.60;;;;;;;6.61;60.08;99068.94;5096912;28;20430;-79
2021/10/23 07:42:03;;;;;;;9.77;3.40;;;;;;;6.75;59.91;99079.47;5112170;28;20361;-79
2021/10/23 07:44:28;;;;;;;10.55;3.55;;;;;;;6.90;59.93;99078.78;5090288;28;20040;-79
2021/10/23 07:46:54;;;;;;;7.28;3.38;;;;;;;6.98;59.67;99070.97;5090988;28;20035;-79
2021/10/23 07:49:19;;;;;;;7.07;2.80;;;;;;;7.03;58.99;99077.56;5088853;28;20024;-79
2021/10/23 07:51:45;;;;;;;12.55;5.40;;;;;;;7.08;58.93;99081.19;5089259;28;20028;-78
2021/10/23 07:54:10;;;;;;;6.32;2.45;;;;;;;7.20;58.88;99080.16;5091644;28;20119;-78
2021/10/23 07:56:37;;;;;;;5.60;1.95;;;;;;;7.25;57.81;99081.06;5090305;28;20032;-80
2021/10/23 07:59:02;;;;;;;11.52;3.00;;;;;;;7.34;58.09;99080.56;5090926;28;20488;-80
2021/10/23 08:01:28;;;;;;;5.93;2.15;;;;;;;7.42;57.56;99085.56;5086784;28;20105;-80
2021/10/23 08:03:55;;;;;;;7.43;2.58;;;;;;;7.41;57.24;99092.94;5091771;28;20022;-78
2021/10/23 08:06:21;;;;;;;7.70;2.72;;;;;;;7.43;57.12;99092.66;5090878;28;20506;-79
2021/10/23 08:08:46;;;;;;;9.35;2.83;;;;;;;7.55;57.68;99095.19;5053830;28;20041;-79
2021/10/23 08:11:11;;;;;;;7.05;2.55;;;;;;;7.65;56.66;99100.75;5091118;28;20031;-79
2021/10/23 08:13:37;;;;;;;5.43;1.77;;;;;;;7.77;56.32;99078.72;5088938;28;20107;-79
2021/10/23 08:16:03;;;;;;;6.60;1.92;;;;;;;7.92;55.26;99082.66;5111870;28;20425;-79
2021/10/23 08:18:29;;;;;;;6.10;1.40;;;;;;;7.98;54.79;99087.88;5098395;28;20407;-80
2021/10/23 08:20:55;;;;;;;4.97;1.83;;;;;;;8.04;54.71;99096.94;5089863;28;20029;-79
2021/10/23 08:23:22;;;;;;;3.38;1.20;;;;;;;8.16;55.63;99094.00;5099341;28;20399;-79
2021/10/23 08:25:47;;;;;;;3.47;1.38;;;;;;;8.30;54.02;99097.91;5099027;28;20051;-79
2021/10/23 08:28:13;;;;;;;3.60;1.48;;;;;;;8.31;53.99;99094.09;5090186;28;20566;-80
2021/10/23 08:30:40;;;;;;;4.10;1.30;;;;;;;8.35;54.46;99097.09;5091552;28;20108;-80
2021/10/23 08:33:05;;;;;;;6.38;1.73;;;;;;;8.41;53.76;99097.94;5089909;28;20354;-80
2021/10/23 08:35:31;;;;;;;3.70;1.10;;;;;;;8.46;53.50;99103.44;5091247;28;20046;-80
2021/10/23 08:37:56;;;;;;;3.50;1.42;;;;;;;8.41;52.70;99100.66;5090335;28;20032;-80
2021/10/23 08:40:23;;;;;;;6.28;1.77;;;;;;;8.33;53.46;99105.59;5091116;28;20533;-80
2021/10/23 08:42:49;;;;;;;27.13;7.38;;;;;;;8.30;53.67;99106.09;5090423;28;20024;-78
2021/10/23 08:45:16;;;;;;;15.73;4.22;;;;;;;8.24;53.66;99112.63;5102084;28;20031;-80
2021/10/23 08:47:44;;;;;;;9.45;2.70;;;;;;;8.21;53.74;99115.88;5093248;28;20020;-79
2021/10/23 08:50:12;;;;;;;5.97;1.45;;;;;;;8.23;53.49;99124.66;5087638;28;20031;-79
2021/10/23 08:52:38;;;;;;;7.38;1.95;;;;;;;8.28;53.85;99113.75;5087706;28;20095;-80
2021/10/23 08:55:05;;;;;;;5.20;1.33;;;;;;;8.42;53.98;99115.97;5096108;28;20032;-79
2021/10/23 08:57:31;;;;;;;6.68;1.40;;;;;;;8.43;53.19;99109.44;5097291;28;20506;-79
2021/10/23 08:59:58;;;;;;;4.40;1.20;;;;;;;8.44;53.33;99111.06;5091025;28;20021;-81
2021/10/23 09:02:25;;;;;;;10.68;2.65;;;;;;;8.54;53.79;99111.16;5090686;28;20109;-80
2021/10/23 09:04:52;;;;;;;6.88;1.38;;;;;;;8.68;53.02;99116.16;5093869;28;20036;-80
2021/10/23 09:07:19;;;;;;;9.10;2.40;;;;;;;8.76;52.78;99121.09;5092510;28;20040;-79
2021/10/23 09:09:50;;;;;;;6.22;1.65;;;;;;;8.85;52.97;99122.22;5111489;28;20023;-78
2021/10/23 09:12:30;;;;;;;6.90;1.70;;;;;;;8.97;52.84;99126.63;5091424;28;21098;-80
2021/10/23 09:15:05;;;;;;;;;;;;;;;9.07;52.40;99124.75;5097078;28;20032;-80
2021/10/23 09:17:34;;;;;;;8.40;2.78;;;;;;;9.13;52.53;99117.38;5107620;28;19919;-79
2021/10/23 09:20:11;;;;;;;5.57;1.98;;;;;;;9.16;51.82;99119.59;5111045;28;20123;-79
2021/10/23 09:22:48;;;;;;;11.05;3.28;;;;;;;9.19;51.95;99115.47;5098623;28;20025;-79
2021/10/23 09:25:21;;;;;;;5.43;2.00;;;;;;;9.19;51.40;99124.47;5089217;28;20024;-79
2021/10/23 09:27:47;;;;;;;9.15;1.90;;;;;;;9.23;52.11;99131.06;5102021;28;20132;-79
2021/10/23 09:30:13;;;;;;;5.82;1.80;;;;;;;9.28;51.21;99126.69;5108291;28;20107;-79
2021/10/23 09:32:39;;;;;;;21.75;8.80;;;;;;;9.28;52.25;99130.28;5092447;28;20020;-80
2021/10/23 09:35:14;;;;;;;9.02;2.20;;;;;;;9.26;51.39;99137.09;5094688;28;20182;-80
2021/10/23 09:37:47;;;;;;;16.15;4.70;;;;;;;9.21;51.20;99144.19;5093276;28;20028;-82
2021/10/23 09:40:16;;;;;;;20.73;6.03;;;;;;;9.20;50.35;99155.44;5094994;28;20039;-82
2021/10/23 09:42:42;;;;;;;21.42;6.50;;;;;;;9.17;49.62;99145.81;5106780;28;20392;-82
2021/10/23 09:45:07;;;;;;;7.20;2.00;;;;;;;9.12;50.50;99143.09;5097028;28;20073;-82
2021/10/23 09:47:44;;;;;;;5.78;2.30;;;;;;;9.13;49.50;99155.69;5090737;28;20031;-81
2021/10/23 09:50:19;;;;;;;5.00;1.52;;;;;;;9.11;50.00;99151.56;5114370;28;20099;-83
2021/10/23 09:53:10;;;;;;;6.47;2.00;;;;;;;9.11;49.79;99151.56;5103192;28;20035;-84
2021/10/23 09:55:56;;;;;;;7.97;2.28;;;;;;;9.15;50.14;99159.00;5094950;28;20035;-83
2021/10/23 09:58:21;;;;;;;7.32;1.90;;;;;;;9.18;50.50;99152.94;5072776;28;20054;-82
2021/10/23 10:00:49;;;;;;;4.80;1.10;;;;;;;9.22;51.07;99169.66;5083429;28;20531;-81
2021/10/23 10:03:16;;;;;;;10.63;2.60;;;;;;;9.24;50.78;99164.75;5083907;28;20107;-80
2021/10/23 10:05:42;;;;;;;9.68;3.25;;;;;;;9.21;49.50;99157.88;5102009;28;20483;-77
2021/10/23 10:08:12;;;;;;;10.88;3.40;;;;;;;9.23;50.49;99160.38;5090982;28;20054;-77
2021/10/23 10:10:40;;;;;;;9.73;3.00;;;;;;;9.24;49.70;99175.69;5083295;28;20024;-78
2021/10/23 10:13:06;;;;;;;10.45;2.90;;;;;;;9.27;49.63;99155.16;5107750;28;20095;-77
2021/10/23 10:15:33;;;;;;;23.58;4.85;;;;;;;9.41;49.43;99155.44;5087405;28;20064;-77
2021/10/23 10:18:19;;;;;;;8.30;3.03;;;;;;;9.55;49.73;99155.78;5094507;28;20024;-78
2021/10/23 10:20:50;;;;;;;6.10;1.65;;;;;;;9.71;49.70;99153.88;5051133;28;20047;-77
2021/10/23 10:23:39;;;;;;;9.95;2.42;;;;;;;9.91;48.38;99155.78;5089767;28;20458;-80
2021/10/23 10:26:14;;;;;;;29.80;7.95;;;;;;;10.02;48.59;99168.34;5087969;28;20049;-78
2021/10/23 10:29:12;;;;;;;22.75;5.90;;;;;;;10.09;47.21;99166.16;5078876;28;20123;-78
2021/10/23 10:32:02;;;;;;;14.88;4.63;;;;;;;10.09;47.23;99160.69;5091351;28;20035;-76
2021/10/23 10:42:52;;;;;;;17.92;6.10;;;;;;;9.83;47.15;99168.94;5087611;28;20675;-79
2021/10/23 10:45:30;;;;;;;9.85;4.78;;;;;;;9.89;46.42;99177.16;5090903;28;20107;-79
2021/10/23 10:48:09;;;;;;;8.05;3.78;;;;;;;9.80;46.88;99166.72;5071272;28;20028;-80
2021/10/23 10:50:42;;;;;;;6.00;1.67;;;;;;;9.76;47.17;99168.38;5087637;28;20039;-80
2021/10/23 10:53:25;;;;;;;5.28;1.70;;;;;;;9.79;47.51;99167.00;5086527;28;20020;-78
2021/10/23 10:56:03;;;;;;;19.98;5.35;;;;;;;9.83;47.48;99168.94;5082642;28;20564;-78
2021/10/23 10:58:57;;;;;;;9.20;2.60;;;;;;;9.92;47.24;99162.91;5086514;28;20093;-78
2021/10/23 11:01:23;;;;;;;11.55;3.63;;;;;;;9.90;46.67;99170.56;5084454;28;20032;-76
2021/10/23 11:03:51;;;;;;;8.52;2.67;;;;;;;9.94;46.58;99164.25;5083119;28;20016;-78
2021/10/23 11:06:35;;;;;;;12.82;4.90;;;;;;;9.97;46.47;99168.38;5083991;28;20388;-77
2021/10/23 11:09:15;;;;;;;10.38;3.28;;;;;;;10.07;46.48;99160.13;5092632;28;20103;-78
2021/10/23 11:17:09;;;;;;;32.53;10.55;;;;;;;10.26;46.55;99162.31;5085709;28;20115;-76
2021/10/23 11:19:48;;;;;;;9.27;2.60;;;;;;;10.40;45.36;99148.88;5062907;28;20056;-76
2021/10/23 11:22:26;;;;;;;10.40;3.53;;;;;;;10.45;45.58;99151.63;5057248;28;20040;-78
2021/10/23 11:25:05;;;;;;;8.27;2.72;;;;;;;10.49;45.99;99146.38;5063376;28;20016;-78
2021/10/23 11:27:36;;;;;;;4.25;1.65;;;;;;;10.51;44.88;99153.25;5079498;28;20056;-79
2021/10/23 11:30:04;;;;;;;4.35;1.48;;;;;;;10.42;45.35;99146.69;5083824;28;20028;-78
2021/10/23 11:32:29;;;;;;;4.50;1.77;;;;;;;10.37;44.81;99150.25;5065148;28;20078;-77
2021/10/23 11:34:55;;;;;;;6.18;2.28;;;;;;;10.37;44.83;99154.88;5070049;28;20031;-76
2021/10/23 11:37:24;;;;;;;6.35;2.30;;;;;;;10.41;45.78;99158.75;5084009;28;20463;-77
2021/10/23 11:40:12;;;;;;;4.22;1.20;;;;;;;10.41;45.23;99177.94;5087199;28;20036;-77
2021/10/23 11:42:45;;;;;;;7.30;2.70;;;;;;;10.41;45.24;99173.25;5092229;28;20083;-75
2021/10/23 11:45:21;;;;;;;6.95;2.17;;;;;;;10.36;45.50;99169.69;5091144;28;20388;-76
2021/10/23 11:47:47;;;;;;;7.20;2.60;;;;;;;10.39;45.01;99175.47;5072513;28;20071;-75
2021/10/23 11:50:21;;;;;;;11.88;5.03;;;;;;;10.50;45.59;99168.06;5101831;28;20043;-77
2021/10/23 11:52:49;;;;;;;4.88;2.47;;;;;;;10.61;45.60;99159.78;5110334;28;20696;-77
2021/10/23 11:55:27;;;;;;;6.82;2.40;;;;;;;10.70;45.19;99169.91;5110894;28;20069;-76